createdAt,value
2019-03-30T00:00:44.654Z,99817
2019-03-30T00:01:58.423Z,99815
2019-03-30T00:03:12.179Z,99812
2019-03-30T00:04:25.920Z,99815
2019-03-30T00:05:39.683Z,99811
2019-03-30T00:06:53.480Z,99813
2019-03-30T00:08:07.213Z,99807
2019-03-30T00:09:20.964Z,99807
2019-03-30T00:10:34.753Z,99804
2019-03-30T00:11:48.507Z,99804
2019-03-30T00:13:02.241Z,99807
2019-03-30T00:14:16.013Z,99803
2019-03-30T00:15:29.741Z,99807
2019-03-30T00:16:43.528Z,99804
2019-03-30T00:17:57.278Z,99807
2019-03-30T00:19:11.054Z,99802
2019-03-30T00:20:25.879Z,99799
2019-03-30T00:21:39.581Z,99798
2019-03-30T00:22:53.343Z,99795
2019-03-30T00:24:07.105Z,99797
2019-03-30T00:25:20.895Z,99796
2019-03-30T00:26:34.657Z,99796
2019-03-30T00:27:48.414Z,99797
2019-03-30T00:29:02.161Z,99797
2019-03-30T00:30:18.962Z,99793
2019-03-30T00:31:29.659Z,99795
2019-03-30T00:32:43.481Z,99793
2019-03-30T00:33:57.260Z,99793
2019-03-30T00:35:11.029Z,99787
2019-03-30T00:36:24.814Z,99795
2019-03-30T00:37:38.568Z,99789
2019-03-30T00:38:52.324Z,99788
2019-03-30T00:40:06.184Z,99787
2019-03-30T00:41:19.917Z,99786
2019-03-30T00:42:33.709Z,99782
2019-03-30T00:43:47.433Z,99784
2019-03-30T00:45:01.198Z,99782
2019-03-30T00:46:14.933Z,99783
2019-03-30T00:47:28.746Z,99784
2019-03-30T00:48:42.481Z,99783
2019-03-30T00:49:56.243Z,99786
2019-03-30T00:51:10.025Z,99788
2019-03-30T00:52:23.812Z,99783
2019-03-30T00:53:37.565Z,99786
2019-03-30T00:54:51.363Z,99785
2019-03-30T00:56:05.120Z,99783
2019-03-30T00:57:18.888Z,99781
2019-03-30T00:58:32.631Z,99781
2019-03-30T00:59:46.375Z,99780
2019-03-30T01:01:00.118Z,99781
2019-03-30T01:02:13.923Z,99782
2019-03-30T01:03:27.666Z,99784
2019-03-30T01:04:41.413Z,99778
2019-03-30T01:05:58.176Z,99780
2019-03-30T01:07:08.923Z,99773
2019-03-30T01:08:22.683Z,99774
2019-03-30T01:09:36.482Z,99772
2019-03-30T01:10:50.215Z,99774
2019-03-30T01:12:03.990Z,99773
2019-03-30T01:13:17.766Z,99769
2019-03-30T01:14:31.519Z,99768
2019-03-30T01:15:45.288Z,99767
2019-03-30T01:16:59.050Z,99775
2019-03-30T01:18:12.818Z,99769
2019-03-30T01:19:26.577Z,99771
2019-03-30T01:20:40.317Z,99769
2019-03-30T01:21:56.135Z,99766
2019-03-30T01:23:07.911Z,99764
2019-03-30T01:24:21.663Z,99764
2019-03-30T01:25:35.434Z,99764
2019-03-30T01:26:49.204Z,99761
2019-03-30T01:28:02.933Z,99760
2019-03-30T01:29:16.682Z,99758
2019-03-30T01:30:30.445Z,99756
2019-03-30T01:31:44.247Z,99754
2019-03-30T01:32:57.996Z,99752
2019-03-30T01:34:11.760Z,99757
2019-03-30T01:35:25.583Z,99752
2019-03-30T01:36:39.254Z,99753
2019-03-30T01:37:54.061Z,99750
2019-03-30T01:39:07.796Z,99752
2019-03-30T01:40:21.524Z,99747
2019-03-30T01:41:35.269Z,99747
2019-03-30T01:42:49.062Z,99746
2019-03-30T01:44:02.882Z,99745
2019-03-30T01:45:16.632Z,99748
2019-03-30T01:46:30.378Z,99740
2019-03-30T01:47:44.145Z,99738
2019-03-30T01:48:57.935Z,99740
2019-03-30T01:50:17.455Z,99740
2019-03-30T01:51:25.433Z,99743
2019-03-30T01:52:39.180Z,99740
2019-03-30T01:53:52.975Z,99733
2019-03-30T01:55:06.737Z,99733
2019-03-30T01:56:20.579Z,99734
2019-03-30T01:57:34.338Z,99732
2019-03-30T01:58:48.116Z,99734
2019-03-30T02:00:01.876Z,99729
2019-03-30T02:01:15.608Z,99731
2019-03-30T02:02:29.392Z,99723
2019-03-30T02:03:43.172Z,99727
2019-03-30T02:04:56.928Z,99726
2019-03-30T02:06:10.729Z,99721
2019-03-30T02:07:24.498Z,99723
2019-03-30T02:08:38.286Z,99721
2019-03-30T02:09:52.055Z,99719
2019-03-30T02:11:05.832Z,99719
2019-03-30T02:12:19.568Z,99718
2019-03-30T02:13:33.360Z,99717
2019-03-30T02:14:47.110Z,99721
2019-03-30T02:16:00.891Z,99717
2019-03-30T02:17:14.709Z,99720
2019-03-30T02:18:28.434Z,99715
2019-03-30T02:19:42.180Z,99716
2019-03-30T02:20:55.953Z,99718
2019-03-30T02:22:09.697Z,99715
2019-03-30T02:23:23.455Z,99718
2019-03-30T02:24:37.226Z,99714
2019-03-30T02:25:51.017Z,99713
2019-03-30T02:27:04.782Z,99713
2019-03-30T02:28:18.556Z,99710
2019-03-30T02:29:32.328Z,99711
2019-03-30T02:30:46.072Z,99710
2019-03-30T02:31:59.826Z,99707
2019-03-30T02:33:13.607Z,99712
2019-03-30T02:34:27.338Z,99707
2019-03-30T02:35:41.154Z,99711
2019-03-30T02:36:54.859Z,99711
2019-03-30T02:38:08.627Z,99708
2019-03-30T02:39:22.370Z,99712
2019-03-30T02:40:36.158Z,99712
2019-03-30T02:41:49.942Z,99710
2019-03-30T02:43:03.697Z,99710
2019-03-30T02:44:17.458Z,99711
2019-03-30T02:45:31.208Z,99711
2019-03-30T02:46:44.957Z,99712
2019-03-30T02:47:58.734Z,99711
2019-03-30T02:49:12.574Z,99711
2019-03-30T02:50:26.341Z,99710
2019-03-30T02:51:41.053Z,99707
2019-03-30T02:52:54.821Z,99705
2019-03-30T02:54:08.617Z,99708
2019-03-30T02:55:22.367Z,99707
2019-03-30T02:56:36.129Z,99709
2019-03-30T02:57:49.886Z,99705
2019-03-30T02:59:03.670Z,99706
2019-03-30T03:00:17.451Z,99700
2019-03-30T03:01:31.226Z,99699
2019-03-30T03:02:44.962Z,99700
2019-03-30T03:03:58.729Z,99701
2019-03-30T03:05:12.487Z,99704
2019-03-30T03:06:26.250Z,99701
2019-03-30T03:07:40.003Z,99697
2019-03-30T03:08:53.781Z,99694
2019-03-30T03:10:07.577Z,99693
2019-03-30T03:11:21.360Z,99694
2019-03-30T03:12:35.114Z,99695
2019-03-30T03:13:48.869Z,99694
2019-03-30T03:15:02.665Z,99697
2019-03-30T03:16:16.457Z,99694
2019-03-30T03:17:30.219Z,99692
2019-03-30T03:18:43.981Z,99691
2019-03-30T03:19:57.751Z,99692
2019-03-30T03:21:11.516Z,99686
2019-03-30T03:22:25.247Z,99684
2019-03-30T03:23:39.062Z,99686
2019-03-30T03:24:52.848Z,99685
2019-03-30T03:26:06.621Z,99690
2019-03-30T03:27:20.381Z,99683
2019-03-30T03:28:34.140Z,99681
2019-03-30T03:29:47.957Z,99683
2019-03-30T03:31:01.724Z,99682
2019-03-30T03:32:15.485Z,99678
2019-03-30T03:33:29.220Z,99680
2019-03-30T03:34:42.982Z,99674
2019-03-30T03:35:56.769Z,99682
2019-03-30T03:37:10.529Z,99680
2019-03-30T03:38:24.305Z,99681
2019-03-30T03:39:39.042Z,99678
2019-03-30T03:40:53.005Z,99684
2019-03-30T03:42:06.750Z,99679
2019-03-30T03:43:20.502Z,99680
2019-03-30T03:44:34.279Z,99681
2019-03-30T03:45:48.022Z,99680
2019-03-30T03:47:01.777Z,99674
2019-03-30T03:48:15.542Z,99674
2019-03-30T03:49:29.307Z,99676
2019-03-30T03:50:43.063Z,99673
2019-03-30T03:51:56.844Z,99674
2019-03-30T03:53:10.596Z,99673
2019-03-30T03:54:24.351Z,99673
2019-03-30T03:55:39.105Z,99671
2019-03-30T03:56:52.858Z,99672
2019-03-30T03:58:06.595Z,99671
2019-03-30T03:59:20.375Z,99668
2019-03-30T04:00:34.151Z,99666
2019-03-30T04:01:47.927Z,99666
2019-03-30T04:03:01.689Z,99658
2019-03-30T04:04:15.451Z,99659
2019-03-30T04:05:29.215Z,99658
2019-03-30T04:06:43.016Z,99658
2019-03-30T04:07:56.765Z,99658
2019-03-30T04:09:10.537Z,99655
2019-03-30T04:10:24.292Z,99652
2019-03-30T04:11:38.057Z,99656
2019-03-30T04:12:51.829Z,99654
2019-03-30T04:14:06.585Z,99651
2019-03-30T04:15:20.338Z,99653
2019-03-30T04:16:34.085Z,99648
2019-03-30T04:17:47.825Z,99650
2019-03-30T04:19:01.582Z,99650
2019-03-30T04:20:15.321Z,99653
2019-03-30T04:21:42.734Z,99654
2019-03-30T04:22:43.825Z,99651
2019-03-30T04:23:57.601Z,99653
2019-03-30T04:25:11.359Z,99651
2019-03-30T04:26:25.159Z,99648
2019-03-30T04:27:38.963Z,99651
2019-03-30T04:28:52.706Z,99650
2019-03-30T04:30:06.452Z,99648
2019-03-30T04:31:20.243Z,99648
2019-03-30T04:32:33.992Z,99649
2019-03-30T04:33:47.735Z,99650
2019-03-30T04:35:01.523Z,99642
2019-03-30T04:36:15.287Z,99640
2019-03-30T04:37:29.045Z,99643
2019-03-30T04:38:42.819Z,99641
2019-03-30T04:39:56.555Z,99641
2019-03-30T04:41:10.334Z,99641
2019-03-30T04:42:24.116Z,99635
2019-03-30T04:43:37.859Z,99636
2019-03-30T04:44:51.619Z,99638
2019-03-30T04:46:05.393Z,99635
2019-03-30T04:47:19.142Z,99631
2019-03-30T04:48:32.892Z,99631
2019-03-30T04:49:46.662Z,99629
2019-03-30T04:51:00.405Z,99630
2019-03-30T04:52:14.169Z,99625
2019-03-30T04:53:27.942Z,99626
2019-03-30T04:54:41.717Z,99628
2019-03-30T04:55:55.716Z,99624
2019-03-30T04:57:09.502Z,99623
2019-03-30T04:58:23.262Z,99626
2019-03-30T04:59:37.016Z,99627
2019-03-30T05:00:50.763Z,99628
2019-03-30T05:02:04.558Z,99624
2019-03-30T05:03:18.311Z,99625
2019-03-30T05:04:32.095Z,99625
2019-03-30T05:05:45.857Z,99626
2019-03-30T05:06:59.618Z,99628
2019-03-30T05:08:13.387Z,99627
2019-03-30T05:09:27.156Z,99626
2019-03-30T05:10:40.936Z,99626
2019-03-30T05:11:54.702Z,99624
2019-03-30T05:13:08.461Z,99625
2019-03-30T05:14:22.230Z,99623
2019-03-30T05:15:36.002Z,99620
2019-03-30T05:16:49.762Z,99623
2019-03-30T05:18:03.559Z,99623
2019-03-30T05:19:17.316Z,99621
2019-03-30T05:20:31.082Z,99623
2019-03-30T05:21:44.833Z,99624
2019-03-30T05:22:59.591Z,99619
2019-03-30T05:24:13.376Z,99621
2019-03-30T05:25:27.129Z,99618
2019-03-30T05:26:40.910Z,99622
2019-03-30T05:27:54.686Z,99620
2019-03-30T05:29:08.453Z,99617
2019-03-30T05:30:22.218Z,99616
2019-03-30T05:31:36.015Z,99618
2019-03-30T05:32:49.802Z,99620
2019-03-30T05:34:04.512Z,99621
2019-03-30T05:35:18.282Z,99624
2019-03-30T05:36:32.034Z,99620
2019-03-30T05:37:45.859Z,99620
2019-03-30T05:39:00.663Z,99620
2019-03-30T05:40:14.423Z,99618
2019-03-30T05:41:29.154Z,99619
2019-03-30T05:42:42.911Z,99617
2019-03-30T05:43:56.677Z,99618
2019-03-30T05:45:10.465Z,99620
2019-03-30T05:46:24.205Z,99619
2019-03-30T05:47:38.042Z,99619
2019-03-30T05:48:51.856Z,99616
2019-03-30T05:50:05.901Z,99612
2019-03-30T05:51:19.594Z,99616
2019-03-30T05:52:35.553Z,99607
2019-03-30T05:53:47.186Z,99610
2019-03-30T05:55:00.942Z,99611
2019-03-30T05:56:14.716Z,99611
2019-03-30T05:57:28.500Z,99607
2019-03-30T05:58:42.311Z,99610
2019-03-30T05:59:56.328Z,99607
2019-03-30T06:01:09.906Z,99610
2019-03-30T06:02:23.792Z,99608
2019-03-30T06:03:37.961Z,99612
2019-03-30T06:04:51.928Z,99604
2019-03-30T06:06:05.654Z,99607
2019-03-30T06:07:19.423Z,99602
2019-03-30T06:08:33.193Z,99604
2019-03-30T06:09:46.947Z,99604
2019-03-30T06:11:00.680Z,99605
2019-03-30T06:12:14.438Z,99596
2019-03-30T06:13:28.237Z,99597
2019-03-30T06:14:42.030Z,99596
2019-03-30T06:15:55.803Z,99593
2019-03-30T06:17:10.558Z,99592
2019-03-30T06:18:24.361Z,99588
2019-03-30T06:19:38.148Z,99590
2019-03-30T06:20:51.907Z,99587
2019-03-30T06:22:05.658Z,99584
2019-03-30T06:23:19.460Z,99579
2019-03-30T06:24:33.190Z,99583
2019-03-30T06:25:46.958Z,99587
2019-03-30T06:27:00.757Z,99575
2019-03-30T06:28:14.520Z,99579
2019-03-30T06:29:28.338Z,99572
2019-03-30T06:30:42.058Z,99577
2019-03-30T06:31:55.805Z,99584
2019-03-30T06:33:09.593Z,99580
2019-03-30T06:34:23.341Z,99583
2019-03-30T06:35:37.128Z,99582
2019-03-30T06:36:50.910Z,99583
2019-03-30T06:38:04.757Z,99579
2019-03-30T06:39:18.534Z,99580
2019-03-30T06:40:32.315Z,99580
2019-03-30T06:41:46.110Z,99582
2019-03-30T06:42:59.826Z,99581
2019-03-30T06:44:13.567Z,99582
2019-03-30T06:45:27.383Z,99585
2019-03-30T06:46:41.090Z,99589
2019-03-30T06:47:54.919Z,99590
2019-03-30T06:49:09.005Z,99593
2019-03-30T06:50:23.359Z,99594
2019-03-30T06:51:37.162Z,99591
2019-03-30T06:52:57.257Z,99594
2019-03-30T06:54:04.874Z,99595
2019-03-30T06:55:18.654Z,99591
2019-03-30T06:56:32.413Z,99595
2019-03-30T06:57:46.232Z,99590
2019-03-30T06:58:59.986Z,99589
2019-03-30T07:00:13.990Z,99589
2019-03-30T07:01:27.750Z,99595
2019-03-30T07:02:41.646Z,99595
2019-03-30T07:03:55.887Z,99595
2019-03-30T07:05:10.645Z,99593
2019-03-30T07:06:24.410Z,99596
2019-03-30T07:07:38.190Z,99594
2019-03-30T07:08:59.052Z,99597
2019-03-30T07:10:12.778Z,99600
2019-03-30T07:11:26.517Z,99599
2019-03-30T07:12:40.294Z,99595
2019-03-30T07:13:54.046Z,99595
2019-03-30T07:15:07.793Z,99597
2019-03-30T07:16:21.545Z,99597
2019-03-30T07:17:36.285Z,99592
2019-03-30T07:18:51.031Z,99593
2019-03-30T07:20:04.821Z,99596
2019-03-30T07:21:18.606Z,99590
2019-03-30T07:22:32.347Z,99591
2019-03-30T07:23:46.105Z,99592
2019-03-30T07:24:59.857Z,99595
2019-03-30T07:26:13.634Z,99595
2019-03-30T07:27:27.381Z,99594
2019-03-30T07:28:41.132Z,99598
2019-03-30T07:29:54.948Z,99595
2019-03-30T07:31:08.687Z,99589
2019-03-30T07:32:22.425Z,99593
2019-03-30T07:33:36.187Z,99592
2019-03-30T07:34:49.993Z,99591
2019-03-30T07:36:03.767Z,99589
2019-03-30T07:37:17.505Z,99588
2019-03-30T07:38:31.238Z,99586
2019-03-30T07:39:45.154Z,99587
2019-03-30T07:40:58.886Z,99588
2019-03-30T07:42:11.588Z,99589
2019-03-30T07:43:25.350Z,99588
2019-03-30T07:44:39.125Z,99587
2019-03-30T07:45:52.910Z,99587
2019-03-30T07:47:06.564Z,99590
2019-03-30T07:48:20.334Z,99588
2019-03-30T07:49:34.114Z,99588
2019-03-30T07:50:47.844Z,99585
2019-03-30T07:52:01.599Z,99588
2019-03-30T07:53:25.993Z,99596
2019-03-30T07:54:29.174Z,99586
2019-03-30T07:55:42.910Z,99591
2019-03-30T07:57:04.447Z,99588
2019-03-30T07:58:12.312Z,99586
2019-03-30T07:59:26.091Z,99589
2019-03-30T08:00:39.828Z,99588
2019-03-30T08:01:53.545Z,99586
2019-03-30T08:03:07.447Z,99584
2019-03-30T08:04:21.065Z,99585
2019-03-30T08:05:34.787Z,99584
2019-03-30T08:06:48.530Z,99581
2019-03-30T08:08:02.248Z,99586
2019-03-30T08:09:14.995Z,99584
2019-03-30T08:10:28.820Z,99587
2019-03-30T08:11:42.577Z,99583
2019-03-30T08:12:56.320Z,99582
2019-03-30T08:14:10.075Z,99579
2019-03-30T08:15:23.835Z,99581
2019-03-30T08:16:37.596Z,99580
2019-03-30T08:17:51.394Z,99576
2019-03-30T08:19:05.117Z,99580
2019-03-30T08:20:18.889Z,99571
2019-03-30T08:21:32.620Z,99579
2019-03-30T08:22:46.365Z,99580
2019-03-30T08:24:00.107Z,99582
2019-03-30T08:25:15.066Z,99579
2019-03-30T08:26:27.609Z,99579
2019-03-30T08:27:41.414Z,99582
2019-03-30T08:28:55.096Z,99587
2019-03-30T08:30:08.881Z,99587
2019-03-30T08:31:22.613Z,99583
2019-03-30T08:32:36.335Z,99589
2019-03-30T08:33:50.116Z,99586
2019-03-30T08:35:03.858Z,99585
2019-03-30T08:36:17.629Z,99582
2019-03-30T08:37:31.351Z,99586
2019-03-30T08:38:45.103Z,99589
2019-03-30T08:39:58.879Z,99588
2019-03-30T08:41:12.623Z,99581
2019-03-30T08:42:26.372Z,99587
2019-03-30T08:43:40.157Z,99589
2019-03-30T08:44:53.938Z,99582
2019-03-30T08:46:07.666Z,99585
2019-03-30T08:47:21.439Z,99581
2019-03-30T08:48:35.172Z,99579
2019-03-30T08:49:48.913Z,99577
2019-03-30T08:51:02.738Z,99575
2019-03-30T08:52:16.579Z,99573
2019-03-30T08:53:30.320Z,99572
2019-03-30T08:54:45.146Z,99565
2019-03-30T08:55:59.030Z,99566
2019-03-30T08:57:12.792Z,99566
2019-03-30T08:58:26.540Z,99563
2019-03-30T08:59:40.279Z,99555
2019-03-30T09:00:54.020Z,99556
2019-03-30T09:02:07.742Z,99558
2019-03-30T09:03:21.481Z,99560
2019-03-30T09:04:35.239Z,99559
2019-03-30T09:05:48.993Z,99553
2019-03-30T09:07:02.742Z,99551
2019-03-30T09:08:16.483Z,99552
2019-03-30T09:09:30.261Z,99550
2019-03-30T09:10:44.013Z,99554
2019-03-30T09:11:57.776Z,99553
2019-03-30T09:13:11.600Z,99553
2019-03-30T09:14:25.346Z,99552
2019-03-30T09:15:39.111Z,99549
2019-03-30T09:16:52.836Z,99551
2019-03-30T09:18:06.552Z,99549
2019-03-30T09:19:20.292Z,99549
2019-03-30T09:20:34.050Z,99550
2019-03-30T09:21:47.771Z,99551
2019-03-30T09:23:01.518Z,99554
2019-03-30T09:24:15.255Z,99557
2019-03-30T09:25:29.614Z,99550
2019-03-30T09:26:43.356Z,99549
2019-03-30T09:27:57.076Z,99548
2019-03-30T09:29:11.431Z,99543
2019-03-30T09:30:25.197Z,99548
2019-03-30T09:31:38.949Z,99549
2019-03-30T09:32:52.690Z,99538
2019-03-30T09:34:06.415Z,99543
2019-03-30T09:35:20.208Z,99542
2019-03-30T09:36:33.992Z,99540
2019-03-30T09:37:47.682Z,99544
2019-03-30T09:39:01.461Z,99547
2019-03-30T09:40:15.208Z,99541
2019-03-30T09:41:29.023Z,99538
2019-03-30T09:42:42.761Z,99535
2019-03-30T09:43:56.501Z,99538
2019-03-30T09:45:10.224Z,99539
2019-03-30T09:46:23.973Z,99534
2019-03-30T09:47:37.706Z,99537
2019-03-30T09:48:51.439Z,99537
2019-03-30T09:50:05.190Z,99536
2019-03-30T09:51:18.944Z,99540
2019-03-30T09:52:32.699Z,99529
2019-03-30T09:53:46.445Z,99537
2019-03-30T09:55:00.343Z,99530
2019-03-30T09:56:14.002Z,99534
2019-03-30T09:57:27.756Z,99531
2019-03-30T09:58:41.489Z,99524
2019-03-30T09:59:55.219Z,99520
2019-03-30T10:01:08.976Z,99526
2019-03-30T10:02:22.745Z,99524
2019-03-30T10:03:36.511Z,99527
2019-03-30T10:04:50.250Z,99529
2019-03-30T10:06:03.997Z,99524
2019-03-30T10:07:17.763Z,99524
2019-03-30T10:08:31.502Z,99522
2019-03-30T10:09:47.209Z,99517
2019-03-30T10:10:59.046Z,99520
2019-03-30T10:12:12.782Z,99521
2019-03-30T10:13:26.536Z,99523
2019-03-30T10:14:40.282Z,99520
2019-03-30T10:15:54.041Z,99523
2019-03-30T10:17:07.825Z,99525
2019-03-30T10:18:21.591Z,99514
2019-03-30T10:19:35.317Z,99517
2019-03-30T10:20:50.050Z,99519
2019-03-30T10:22:04.363Z,99518
2019-03-30T10:23:18.109Z,99523
2019-03-30T10:24:37.715Z,99521
2019-03-30T10:25:45.567Z,99522
2019-03-30T10:26:59.346Z,99523
2019-03-30T10:28:13.089Z,99523
2019-03-30T10:29:26.862Z,99517
2019-03-30T10:30:40.608Z,99522
2019-03-30T10:31:54.465Z,99518
2019-03-30T10:33:08.193Z,99523
2019-03-30T10:34:21.964Z,99518
2019-03-30T10:35:35.690Z,99525
2019-03-30T10:36:49.481Z,99514
2019-03-30T10:38:03.212Z,99513
2019-03-30T10:39:16.954Z,99517
2019-03-30T10:40:30.724Z,99511
2019-03-30T10:41:44.498Z,99515
2019-03-30T10:42:57.240Z,99508
2019-03-30T10:44:11.022Z,99505
2019-03-30T10:45:24.775Z,99507
2019-03-30T10:46:38.553Z,99503
2019-03-30T10:47:53.050Z,99506
2019-03-30T10:49:06.785Z,99504
2019-03-30T10:50:20.524Z,99508
2019-03-30T10:51:34.288Z,99497
2019-03-30T10:52:48.024Z,99506
2019-03-30T10:54:01.754Z,99498
2019-03-30T10:55:15.528Z,99502
2019-03-30T10:56:29.257Z,99495
2019-03-30T10:57:43.034Z,99498
2019-03-30T10:58:57.774Z,99493
2019-03-30T11:00:11.543Z,99494
2019-03-30T11:01:25.306Z,99497
2019-03-30T11:02:39.088Z,99486
2019-03-30T11:03:52.842Z,99486
2019-03-30T11:05:06.591Z,99482
2019-03-30T11:06:20.332Z,99488
2019-03-30T11:07:34.090Z,99486
2019-03-30T11:08:47.884Z,99485
2019-03-30T11:10:01.615Z,99483
2019-03-30T11:11:15.443Z,99484
2019-03-30T11:12:29.116Z,99485
2019-03-30T11:13:42.875Z,99480
2019-03-30T11:14:56.626Z,99483
2019-03-30T11:16:10.371Z,99475
2019-03-30T11:17:24.113Z,99474
2019-03-30T11:18:37.868Z,99480
2019-03-30T11:19:51.587Z,99474
2019-03-30T11:21:05.334Z,99477
2019-03-30T11:22:19.106Z,99475
2019-03-30T11:23:32.833Z,99469
2019-03-30T11:24:46.597Z,99470
2019-03-30T11:26:01.306Z,99467
2019-03-30T11:27:15.068Z,99468
2019-03-30T11:28:28.828Z,99469
2019-03-30T11:29:42.572Z,99468
2019-03-30T11:30:56.300Z,99479
2019-03-30T11:32:10.033Z,99472
2019-03-30T11:33:23.757Z,99472
2019-03-30T11:34:37.500Z,99474
2019-03-30T11:35:51.232Z,99463
2019-03-30T11:37:05.035Z,99462
2019-03-30T11:38:18.765Z,99473
2019-03-30T11:39:32.514Z,99464
2019-03-30T11:40:46.286Z,99467
2019-03-30T11:42:00.065Z,99459
2019-03-30T11:43:13.849Z,99461
2019-03-30T11:44:27.577Z,99465
2019-03-30T11:45:41.313Z,99466
2019-03-30T11:46:55.056Z,99455
2019-03-30T11:48:08.822Z,99463
2019-03-30T11:49:22.565Z,99469
2019-03-30T11:50:36.294Z,99457
2019-03-30T11:51:50.064Z,99459
2019-03-30T11:53:03.800Z,99455
2019-03-30T11:54:17.540Z,99454
2019-03-30T11:55:31.282Z,99455
2019-03-30T11:56:45.037Z,99449
2019-03-30T11:57:58.803Z,99443
2019-03-30T11:59:12.555Z,99442
2019-03-30T12:00:26.285Z,99446
2019-03-30T12:01:40.038Z,99451
2019-03-30T12:02:53.796Z,99448
2019-03-30T12:04:07.541Z,99447
2019-03-30T12:05:21.300Z,99449
2019-03-30T12:06:35.062Z,99445
2019-03-30T12:07:48.820Z,99439
2019-03-30T12:09:02.716Z,99442
2019-03-30T12:10:16.425Z,99446
2019-03-30T12:11:30.209Z,99441
2019-03-30T12:12:43.969Z,99435
2019-03-30T12:13:57.716Z,99441
2019-03-30T12:15:11.449Z,99435
2019-03-30T12:16:25.194Z,99434
2019-03-30T12:17:40.963Z,99437
2019-03-30T12:18:52.691Z,99437
2019-03-30T12:20:06.437Z,99428
2019-03-30T12:21:20.172Z,99431
2019-03-30T12:22:33.911Z,99428
2019-03-30T12:23:47.675Z,99429
2019-03-30T12:25:01.440Z,99426
2019-03-30T12:26:15.183Z,99430
2019-03-30T12:27:28.942Z,99433
2019-03-30T12:28:42.714Z,99428
2019-03-30T12:29:56.447Z,99428
2019-03-30T12:31:10.218Z,99429
2019-03-30T12:32:23.981Z,99425
2019-03-30T12:33:37.733Z,99422
2019-03-30T12:34:51.478Z,99419
2019-03-30T12:36:05.213Z,99418
2019-03-30T12:37:18.963Z,99418
2019-03-30T12:38:32.714Z,99424
2019-03-30T12:39:46.510Z,99416
2019-03-30T12:41:00.249Z,99413
2019-03-30T12:42:13.988Z,99410
2019-03-30T12:43:27.745Z,99403
2019-03-30T12:44:41.481Z,99415
2019-03-30T12:45:54.271Z,99407
2019-03-30T12:47:10.324Z,99404
2019-03-30T12:48:21.786Z,99409
2019-03-30T12:49:35.537Z,99410
2019-03-30T12:50:49.252Z,99407
2019-03-30T12:52:03.008Z,99404
2019-03-30T12:53:16.751Z,99400
2019-03-30T12:54:30.555Z,99399
2019-03-30T12:55:49.349Z,99400
2019-03-30T12:56:58.065Z,99398
2019-03-30T12:58:11.812Z,99397
2019-03-30T12:59:25.568Z,99401
2019-03-30T13:00:39.301Z,99401
2019-03-30T13:01:53.065Z,99405
2019-03-30T13:03:06.835Z,99402
2019-03-30T13:04:20.600Z,99399
2019-03-30T13:05:34.426Z,99399
2019-03-30T13:06:49.074Z,99402
2019-03-30T13:08:02.862Z,99402
2019-03-30T13:09:16.656Z,99396
2019-03-30T13:10:30.549Z,99401
2019-03-30T13:11:45.314Z,99398
2019-03-30T13:12:59.127Z,99399
2019-03-30T13:14:12.867Z,99399
2019-03-30T13:15:26.659Z,99402
2019-03-30T13:16:40.405Z,99400
2019-03-30T13:17:54.150Z,99397
2019-03-30T13:19:07.944Z,99403
2019-03-30T13:20:21.751Z,99392
2019-03-30T13:21:35.496Z,99392
2019-03-30T13:22:50.189Z,99395
2019-03-30T13:24:03.932Z,99388
2019-03-30T13:25:17.718Z,99388
2019-03-30T13:26:31.517Z,99393
2019-03-30T13:27:45.256Z,99384
2019-03-30T13:28:58.997Z,99388
2019-03-30T13:30:12.797Z,99386
2019-03-30T13:31:26.534Z,99386
2019-03-30T13:32:40.370Z,99385
2019-03-30T13:33:54.124Z,99378
2019-03-30T13:35:07.915Z,99382
2019-03-30T13:36:21.656Z,99387
2019-03-30T13:37:35.384Z,99384
2019-03-30T13:38:49.179Z,99381
2019-03-30T13:40:02.992Z,99384
2019-03-30T13:41:16.740Z,99382
2019-03-30T13:42:30.499Z,99382
2019-03-30T13:43:44.236Z,99376
2019-03-30T13:44:58.028Z,99372
2019-03-30T13:46:11.756Z,99381
2019-03-30T13:47:25.487Z,99372
2019-03-30T13:48:39.249Z,99377
2019-03-30T13:49:54.038Z,99379
2019-03-30T13:51:07.756Z,99373
2019-03-30T13:52:21.517Z,99373
2019-03-30T13:53:35.259Z,99377
2019-03-30T13:54:49.015Z,99377
2019-03-30T13:56:16.221Z,99372
2019-03-30T13:57:17.526Z,99369
2019-03-30T13:58:31.256Z,99363
2019-03-30T13:59:45.001Z,99368
2019-03-30T14:00:58.841Z,99362
2019-03-30T14:02:12.582Z,99372
2019-03-30T14:03:26.381Z,99364
2019-03-30T14:04:40.118Z,99363
2019-03-30T14:05:53.875Z,99369
2019-03-30T14:07:07.662Z,99366
2019-03-30T14:08:21.390Z,99368
2019-03-30T14:09:35.138Z,99361
2019-03-30T14:10:48.910Z,99361
2019-03-30T14:12:02.647Z,99359
2019-03-30T14:13:17.388Z,99355
2019-03-30T14:14:31.132Z,99359
2019-03-30T14:15:44.943Z,99362
2019-03-30T14:16:58.715Z,99353
2019-03-30T14:18:12.449Z,99355
2019-03-30T14:19:26.194Z,99352
2019-03-30T14:20:39.963Z,99361
2019-03-30T14:21:53.741Z,99354
2019-03-30T14:23:07.503Z,99362
2019-03-30T14:24:21.283Z,99357
2019-03-30T14:25:35.091Z,99356
2019-03-30T14:26:48.843Z,99355
2019-03-30T14:28:02.603Z,99352
2019-03-30T14:29:16.344Z,99353
2019-03-30T14:30:30.113Z,99352
2019-03-30T14:31:43.901Z,99356
2019-03-30T14:32:57.667Z,99356
2019-03-30T14:34:11.433Z,99355
2019-03-30T14:35:25.179Z,99354
2019-03-30T14:36:38.988Z,99351
2019-03-30T14:37:52.759Z,99347
2019-03-30T14:39:06.490Z,99344
2019-03-30T14:40:20.224Z,99345
2019-03-30T14:41:34.007Z,99325
2019-03-30T14:42:47.779Z,99344
2019-03-30T14:44:01.569Z,99337
2019-03-30T14:45:16.231Z,99345
2019-03-30T14:46:30.032Z,99345
2019-03-30T14:47:43.780Z,99339
2019-03-30T14:48:58.573Z,99344
2019-03-30T14:50:12.344Z,99338
2019-03-30T14:51:26.095Z,99340
2019-03-30T14:52:40.638Z,99339
2019-03-30T14:53:54.366Z,99343
2019-03-30T14:55:08.152Z,99341
2019-03-30T14:56:21.936Z,99341
2019-03-30T14:57:36.697Z,99347
2019-03-30T14:58:50.435Z,99345
2019-03-30T15:00:05.144Z,99337
2019-03-30T15:01:18.901Z,99335
2019-03-30T15:02:32.648Z,99336
2019-03-30T15:03:46.394Z,99332
2019-03-30T15:05:01.055Z,99340
2019-03-30T15:06:13.866Z,99336
2019-03-30T15:07:27.716Z,99337
2019-03-30T15:08:41.468Z,99335
2019-03-30T15:09:55.258Z,99340
2019-03-30T15:11:08.990Z,99335
2019-03-30T15:12:22.818Z,99334
2019-03-30T15:13:36.550Z,99335
2019-03-30T15:14:50.311Z,99336
2019-03-30T15:16:04.070Z,99334
2019-03-30T15:17:17.845Z,99332
2019-03-30T15:18:31.586Z,99334
2019-03-30T15:19:45.345Z,99333
2019-03-30T15:20:59.078Z,99336
2019-03-30T15:22:12.853Z,99334
2019-03-30T15:23:27.074Z,99333
2019-03-30T15:24:40.333Z,99337
2019-03-30T15:25:54.121Z,99332
2019-03-30T15:27:07.848Z,99329
2019-03-30T15:28:21.943Z,99333
2019-03-30T15:29:35.727Z,99331
2019-03-30T15:30:49.470Z,99330
2019-03-30T15:32:03.241Z,99324
2019-03-30T15:33:16.979Z,99328
2019-03-30T15:34:30.731Z,99327
2019-03-30T15:35:44.477Z,99324
2019-03-30T15:36:58.234Z,99319
2019-03-30T15:38:11.982Z,99323
2019-03-30T15:39:25.717Z,99322
2019-03-30T15:40:39.455Z,99319
2019-03-30T15:41:54.187Z,99318
2019-03-30T15:43:07.941Z,99326
2019-03-30T15:44:21.698Z,99320
2019-03-30T15:45:35.498Z,99322
2019-03-30T15:46:49.264Z,99323
2019-03-30T15:48:03.025Z,99320
2019-03-30T15:49:16.750Z,99328
2019-03-30T15:50:30.499Z,99331